Time;durP1;ratioP1;P1;durP2;ratioP2;P2;SDS_P1;SDS_P2;PMS_P1;PMS_P2;Temp;Humidity;BMP_temperature;BMP_pressure;BME280_temperature;BME280_humidity;BME280_pressure;Samples;Min_cycle;Max_cycle;Signal;HPM_P1;HPM_P2
2022/09/17 00:01:23;;;;;;;5.30;2.75;;;;;;;9.72;80.59;97730.06;4236546;27;20035;-71
2022/09/17 00:03:25;;;;;;;5.80;3.00;;;;;;;9.73;80.97;97745.44;4236816;27;20070;-71
2022/09/17 00:05:26;;;;;;;5.45;3.22;;;;;;;9.73;81.19;97732.41;4235145;27;20054;-71
2022/09/17 00:07:27;;;;;;;6.07;2.88;;;;;;;9.74;81.42;97722.94;4235971;27;20130;-71
2022/09/17 00:09:28;;;;;;;6.25;3.17;;;;;;;9.78;81.25;97743.09;4235061;27;20043;-71
2022/09/17 00:11:30;;;;;;;5.72;2.75;;;;;;;9.70;81.68;97732.41;4235162;27;20065;-71
2022/09/17 00:13:31;;;;;;;4.88;2.65;;;;;;;9.76;81.91;97741.88;4235754;27;20043;-71
2022/09/17 00:15:31;;;;;;;5.28;2.75;;;;;;;9.75;81.74;97751.34;4235722;27;20065;-71
2022/09/17 00:17:32;;;;;;;6.22;3.15;;;;;;;9.82;81.93;97749.41;4235409;28;20576;-71
2022/09/17 00:19:32;;;;;;;7.32;2.70;;;;;;;9.80;82.01;97749.03;4235181;27;20050;-71
2022/09/17 00:21:32;;;;;;;6.63;2.83;;;;;;;9.75;81.98;97743.06;4235517;28;20055;-71
2022/09/17 00:23:33;;;;;;;4.55;2.72;;;;;;;9.81;81.72;97742.31;4234847;28;20035;-71
2022/09/17 00:25:36;;;;;;;5.32;2.97;;;;;;;9.76;82.58;97753.75;4234809;27;20039;-71
2022/09/17 00:27:36;;;;;;;4.00;2.70;;;;;;;9.71;82.68;97750.56;4236780;27;20035;-71
2022/09/17 00:29:37;;;;;;;4.50;2.58;;;;;;;9.75;82.60;97751.34;4235882;27;20533;-71
2022/09/17 00:31:37;;;;;;;3.25;2.53;;;;;;;9.73;83.10;97750.97;4235155;27;20642;-71
2022/09/17 00:33:38;;;;;;;3.20;2.40;;;;;;;9.71;83.03;97754.13;4234812;28;20039;-71
2022/09/17 00:35:38;;;;;;;3.53;2.75;;;;;;;9.76;83.52;97761.22;4234932;28;20045;-71
2022/09/17 00:37:38;;;;;;;6.10;2.80;;;;;;;9.69;84.13;97759.25;4235048;27;20390;-72
2022/09/17 00:39:39;;;;;;;5.82;3.25;;;;;;;9.67;83.86;97756.06;4234775;28;20118;-71
2022/09/17 00:41:39;;;;;;;5.68;3.30;;;;;;;9.65;84.81;97752.13;4235118;28;20063;-71
2022/09/17 00:43:41;;;;;;;4.38;2.92;;;;;;;9.58;84.84;97753.66;4235442;27;20039;-72
2022/09/17 00:45:42;;;;;;;6.20;3.00;;;;;;;9.62;85.15;97758.44;4235122;28;20485;-71
2022/09/17 00:47:49;;;;;;;4.90;2.60;;;;;;;9.57;85.59;97749.34;4234891;27;20117;-71
2022/09/17 00:49:53;;;;;;;5.15;3.05;;;;;;;9.52;85.70;97760.78;4233848;27;20758;-71
2022/09/17 00:52:04;;;;;;;5.07;3.10;;;;;;;9.58;85.69;97764.72;4235248;28;20493;-71
2022/09/17 00:54:08;;;;;;;6.45;3.05;;;;;;;9.51;86.24;97764.69;4233585;28;20047;-71
2022/09/17 00:56:19;;;;;;;3.67;2.60;;;;;;;9.46;86.98;97759.56;4234151;28;20023;-71
2022/09/17 00:58:22;;;;;;;4.53;2.75;;;;;;;9.41;88.07;97759.13;4234346;28;20526;-71
2022/09/17 01:00:22;;;;;;;5.38;2.70;;;;;;;9.42;88.73;97764.25;4233987;28;20394;-71
2022/09/17 01:02:24;;;;;;;5.68;3.20;;;;;;;9.38;87.87;97754.38;4235312;28;20035;-71
2022/09/17 01:04:26;;;;;;;3.85;2.65;;;;;;;9.34;89.38;97759.09;4234641;27;20519;-71
2022/09/17 01:07:00;;;;;;;4.88;2.78;;;;;;;9.25;90.05;97756.69;4237225;27;20520;-71
2022/09/17 01:09:24;;;;;;;4.38;3.30;;;;;;;9.21;90.19;97764.16;4236511;27;20581;-71
2022/09/17 01:11:45;;;;;;;6.40;3.00;;;;;;;9.19;90.32;97770.06;4237770;27;20130;-71
2022/09/17 01:13:59;;;;;;;7.88;2.70;;;;;;;9.21;89.91;97764.97;4237044;27;20394;-71
2022/09/17 01:16:15;;;;;;;4.72;3.50;;;;;;;9.27;89.51;97768.16;4237466;27;20122;-71
2022/09/17 01:18:35;;;;;;;5.07;2.72;;;;;;;9.21;89.25;97767.72;4238000;27;20709;-71
2022/09/17 01:21:13;;;;;;;3.75;2.85;;;;;;;9.17;90.04;97772.41;4237673;27;20338;-71
2022/09/17 01:23:33;;;;;;;3.35;2.75;;;;;;;9.17;90.37;97769.66;4237269;27;20410;-71
2022/09/17 01:26:01;;;;;;;3.60;2.83;;;;;;;9.18;90.12;97762.16;4238020;27;20063;-71
2022/09/17 01:28:39;;;;;;;4.75;2.70;;;;;;;9.15;90.40;97771.22;4236625;27;20054;-71
2022/09/17 01:30:57;;;;;;;3.50;2.70;;;;;;;9.09;91.00;97775.50;4237445;27;20035;-71
2022/09/17 01:33:04;;;;;;;4.07;2.10;;;;;;;9.04;90.65;97765.66;4237994;27;20039;-71
2022/09/17 01:35:28;;;;;;;2.55;1.90;;;;;;;9.10;90.56;97758.59;4236422;27;20287;-72
2022/09/17 01:37:35;;;;;;;4.20;2.10;;;;;;;9.11;90.65;97768.44;4237365;27;20103;-71
2022/09/17 01:39:41;;;;;;;4.30;2.20;;;;;;;9.01;91.48;97767.19;4237406;27;20450;-71
2022/09/17 01:42:19;;;;;;;4.65;2.60;;;;;;;8.95;92.19;97768.75;4237801;27;20540;-72
2022/09/17 01:44:51;;;;;;;5.88;2.40;;;;;;;9.01;92.14;97772.69;4237100;27;20479;-71
2022/09/17 01:47:03;;;;;;;4.32;2.35;;;;;;;8.97;92.19;97763.63;4237445;27;20549;-71
2022/09/17 01:49:06;;;;;;;3.15;2.10;;;;;;;9.02;91.85;97765.25;4236984;27;20043;-71
2022/09/17 01:51:09;;;;;;;3.28;2.10;;;;;;;8.99;91.84;97768.75;4236533;27;20062;-71
2022/09/17 01:53:11;;;;;;;3.40;2.25;;;;;;;9.03;91.62;97769.59;4236879;27;20072;-71
2022/09/17 01:55:15;;;;;;;6.90;2.25;;;;;;;8.95;92.70;97762.44;4238237;27;20035;-71
2022/09/17 01:57:24;;;;;;;3.78;1.92;;;;;;;8.97;91.99;97769.16;4237525;27;20054;-72
2022/09/17 01:59:40;;;;;;;2.83;1.83;;;;;;;8.96;92.33;97764.03;4236571;27;20039;-72
2022/09/17 02:01:43;;;;;;;3.58;2.00;;;;;;;8.91;93.02;97767.91;4236237;27;20072;-71
2022/09/17 02:04:01;;;;;;;3.22;2.00;;;;;;;8.89;93.59;97770.28;4236944;27;20552;-71
2022/09/17 02:06:26;;;;;;;4.57;2.10;;;;;;;8.93;93.06;97762.78;4236915;27;20042;-72
2022/09/17 02:08:36;;;;;;;2.25;1.70;;;;;;;8.90;93.25;97766.34;4236520;27;20077;-71
2022/09/17 02:10:42;;;;;;;3.50;1.70;;;;;;;8.91;93.34;97767.91;4237333;27;20089;-71
2022/09/17 02:12:53;;;;;;;1.75;1.30;;;;;;;8.83;93.41;97759.97;4236580;27;20066;-72
2022/09/17 02:14:57;;;;;;;3.47;1.65;;;;;;;8.80;94.54;97764.31;4237548;27;20043;-72
2022/09/17 02:17:31;;;;;;;2.85;1.42;;;;;;;8.82;94.48;97767.47;4236610;27;20101;-71
2022/09/17 02:19:36;;;;;;;3.72;1.50;;;;;;;8.78;94.92;97766.66;4236214;27;20510;-72
2022/09/17 02:21:44;;;;;;;4.70;1.90;;;;;;;8.72;95.00;97766.22;4237283;27;20500;-71
2022/09/17 02:24:10;;;;;;;2.80;1.73;;;;;;;8.67;95.74;97763.81;4236880;27;20047;-72
2022/09/17 02:26:17;;;;;;;5.05;1.58;;;;;;;8.64;96.28;97777.56;4236282;27;20606;-71
2022/09/17 02:28:37;;;;;;;1.65;1.30;;;;;;;8.67;96.45;97766.56;4236875;27;20027;-71
2022/09/17 02:30:37;;;;;;;2.75;1.40;;;;;;;8.67;96.01;97774.03;4237407;27;20055;-71
2022/09/17 02:32:38;;;;;;;2.85;1.70;;;;;;;8.67;96.21;97765.78;4237101;27;20247;-72
2022/09/17 02:34:39;;;;;;;1.40;1.23;;;;;;;8.69;95.73;97766.19;4236972;27;20047;-71
2022/09/17 02:36:39;;;;;;;2.25;1.50;;;;;;;8.66;96.82;97770.50;4237414;27;20342;-71
2022/09/17 02:38:44;;;;;;;1.42;1.20;;;;;;;8.65;96.34;97766.16;4236612;27;20038;-71
2022/09/17 02:40:48;;;;;;;1.20;1.00;;;;;;;8.61;95.75;97770.88;4237223;27;20558;-71
2022/09/17 02:43:24;;;;;;;2.20;1.10;;;;;;;8.64;95.74;97772.06;4237006;27;20032;-71
2022/09/17 02:45:37;;;;;;;1.50;1.00;;;;;;;8.66;95.49;97773.25;4236655;27;20527;-71
2022/09/17 02:48:03;;;;;;;2.72;1.00;;;;;;;8.61;96.93;97772.84;4236492;27;20057;-71
2022/09/17 02:50:58;;;;;;;2.15;0.80;;;;;;;8.65;96.15;97774.44;4235716;27;20046;-71
2022/09/17 02:53:18;;;;;;;2.50;0.90;;;;;;;8.66;96.46;97773.25;4152332;28;20219;-71
2022/09/17 02:55:49;;;;;;;2.10;0.85;;;;;;;8.63;97.19;97773.25;4209530;27;20059;-72
2022/09/17 02:58:23;;;;;;;1.45;1.02;;;;;;;8.53;98.14;97765.69;4195085;27;20099;-71
2022/09/17 03:00:25;;;;;;;1.08;0.90;;;;;;;8.51;98.52;97777.06;4237109;27;20099;-71
2022/09/17 03:03:05;;;;;;;1.48;0.82;;;;;;;8.52;98.75;97764.88;4236919;27;20050;-72
2022/09/17 03:05:07;;;;;;;1.60;0.80;;;;;;;8.45;100.00;97770.34;4172655;27;20047;-72
2022/09/17 03:07:10;;;;;;;1.20;1.08;;;;;;;8.41;100.00;97764.78;4237327;27;20446;-72
2022/09/17 03:09:11;;;;;;;1.15;0.93;;;;;;;8.36;100.00;97756.09;4238116;27;20096;-72
2022/09/17 03:11:11;;;;;;;1.20;1.00;;;;;;;8.40;100.00;97767.94;4236685;27;20475;-72
2022/09/17 03:13:12;;;;;;;1.52;0.85;;;;;;;8.41;100.00;97762.03;4236663;27;20050;-72
2022/09/17 03:15:12;;;;;;;1.00;0.80;;;;;;;8.40;100.00;97765.97;4236806;27;20055;-72
2022/09/17 03:17:13;;;;;;;0.90;0.70;;;;;;;8.43;100.00;97772.66;4236667;27;20440;-71
2022/09/17 03:19:14;;;;;;;0.90;0.80;;;;;;;8.48;100.00;97772.31;4235692;27;20074;-72
2022/09/17 03:21:14;;;;;;;1.65;0.80;;;;;;;8.51;99.92;97765.25;4236462;27;20062;-73
2022/09/17 03:23:15;;;;;;;1.00;0.80;;;;;;;8.42;100.00;97768.31;4236897;27;20043;-73
2022/09/17 03:25:15;;;;;;;1.92;0.90;;;;;;;8.39;100.00;97769.88;4236746;27;20475;-73
2022/09/17 03:27:15;;;;;;;0.80;0.80;;;;;;;8.41;100.00;97775.03;4236390;27;20051;-73
2022/09/17 03:29:16;;;;;;;1.08;0.90;;;;;;;8.35;100.00;97776.53;4235751;27;20035;-73
2022/09/17 03:31:16;;;;;;;1.48;1.10;;;;;;;8.34;100.00;97781.22;4236558;27;20659;-73
2022/09/17 03:33:16;;;;;;;1.25;0.80;;;;;;;8.43;100.00;97775.41;4235501;27;20463;-73
2022/09/17 03:35:17;;;;;;;0.93;0.80;;;;;;;8.46;100.00;97779.41;4237367;27;20129;-73
2022/09/17 03:37:17;;;;;;;2.38;1.10;;;;;;;8.49;100.00;97773.91;4236630;27;20475;-72
2022/09/17 03:39:17;;;;;;;2.13;0.90;;;;;;;8.43;100.00;97784.47;4236032;27;20134;-72
2022/09/17 03:41:17;;;;;;;2.00;1.17;;;;;;;8.44;100.00;97780.59;4236576;27;20043;-72
2022/09/17 03:43:18;;;;;;;1.92;1.02;;;;;;;8.42;100.00;97793.13;4235913;27;20039;-72
2022/09/17 03:45:18;;;;;;;1.17;0.80;;;;;;;8.40;100.00;97793.53;4236155;27;20043;-72
2022/09/17 03:47:18;;;;;;;2.00;1.00;;;;;;;8.51;100.00;97787.31;4236018;27;20054;-73
2022/09/17 03:49:19;;;;;;;1.20;0.90;;;;;;;8.50;100.00;97791.25;4235529;27;20046;-72
2022/09/17 03:51:19;;;;;;;1.05;0.95;;;;;;;8.51;100.00;97790.06;4236068;27;20232;-72
2022/09/17 03:53:20;;;;;;;1.20;1.00;;;;;;;8.51;100.00;97787.31;4235646;27;20561;-73
2022/09/17 03:55:20;;;;;;;1.00;0.90;;;;;;;8.56;100.00;97792.47;4236645;27;20380;-72
2022/09/17 03:57:21;;;;;;;1.27;0.98;;;;;;;8.55;100.00;97796.41;4236118;27;20688;-73
2022/09/17 03:59:22;;;;;;;1.88;1.17;;;;;;;8.55;100.00;97797.19;4235394;27;20120;-72
2022/09/17 04:01:22;;;;;;;3.17;0.90;;;;;;;8.57;100.00;97799.56;4236605;27;20747;-72
2022/09/17 04:03:23;;;;;;;1.55;1.08;;;;;;;8.58;100.00;97793.66;4235256;27;20395;-72
2022/09/17 04:05:24;;;;;;;1.45;1.00;;;;;;;8.59;100.00;97803.53;4236017;27;20100;-73
2022/09/17 04:07:24;;;;;;;1.35;1.00;;;;;;;8.61;100.00;97800.41;4235828;27;20306;-73
2022/09/17 04:09:24;;;;;;;1.30;1.00;;;;;;;8.59;100.00;97797.22;4235664;27;20057;-73
2022/09/17 04:11:25;;;;;;;1.33;0.85;;;;;;;8.57;100.00;97800.38;4236063;27;20069;-72
2022/09/17 04:13:26;;;;;;;1.52;1.10;;;;;;;8.60;100.00;97807.06;4235411;27;20047;-72
2022/09/17 04:15:26;;;;;;;3.80;1.17;;;;;;;8.56;100.00;97800.75;4233830;27;20067;-73
2022/09/17 04:17:26;;;;;;;1.50;1.00;;;;;;;8.61;100.00;97808.69;4235512;27;20122;-73
2022/09/17 04:19:27;;;;;;;3.67;1.08;;;;;;;8.58;100.00;97807.47;4232524;27;20047;-73
2022/09/17 04:21:27;;;;;;;1.23;0.95;;;;;;;8.60;100.00;97804.31;4236151;27;20790;-72
2022/09/17 04:23:28;;;;;;;1.05;0.90;;;;;;;8.55;100.00;97808.22;4235926;27;20501;-73
2022/09/17 04:25:28;;;;;;;0.82;0.70;;;;;;;8.56;100.00;97796.03;4235722;27;20047;-73
2022/09/17 04:27:28;;;;;;;1.90;1.10;;;;;;;8.51;100.00;97806.59;4235761;27;20622;-73
2022/09/17 04:29:29;;;;;;;1.50;0.90;;;;;;;8.52;100.00;97805.44;4235296;27;20378;-73
2022/09/17 04:31:29;;;;;;;1.10;1.00;;;;;;;8.53;100.00;97810.59;4235225;27;20042;-72
2022/09/17 04:33:29;;;;;;;2.58;1.02;;;;;;;8.48;100.00;97819.19;4235051;27;20051;-72
2022/09/17 04:35:30;;;;;;;1.30;0.82;;;;;;;8.53;100.00;97826.34;4235667;27;20031;-72
2022/09/17 04:37:30;;;;;;;1.85;1.00;;;;;;;8.49;100.00;97817.22;4235770;27;20608;-73
2022/09/17 04:39:30;;;;;;;2.45;1.20;;;;;;;8.46;100.00;97824.31;4235186;27;20071;-72
2022/09/17 04:41:31;;;;;;;1.38;1.08;;;;;;;8.47;100.00;97819.56;4238086;27;20133;-72
2022/09/17 04:43:31;;;;;;;0.88;0.80;;;;;;;8.50;100.00;97816.06;4238844;27;20063;-72
2022/09/17 04:45:32;;;;;;;1.85;0.90;;;;;;;8.56;100.00;97828.31;4238538;27;20114;-72
2022/09/17 04:47:32;;;;;;;2.78;1.10;;;;;;;8.62;100.00;97829.56;4237585;27;20541;-72
2022/09/17 04:49:33;;;;;;;1.38;0.95;;;;;;;8.55;100.00;97818.47;4237349;27;20070;-72
2022/09/17 04:51:33;;;;;;;2.63;1.13;;;;;;;8.54;100.00;97814.91;4237956;27;20495;-72
2022/09/17 04:53:33;;;;;;;1.85;1.10;;;;;;;8.49;100.00;97825.50;4238981;27;20348;-72
2022/09/17 04:55:34;;;;;;;2.20;1.10;;;;;;;8.49;100.00;97817.22;4238441;27;20047;-72
2022/09/17 04:57:34;;;;;;;1.30;1.00;;;;;;;8.46;100.00;97826.28;4237824;27;20035;-72
2022/09/17 04:59:35;;;;;;;3.75;1.45;;;;;;;8.48;100.00;97823.91;4238955;27;20050;-72
2022/09/17 05:01:35;;;;;;;3.90;1.10;;;;;;;8.44;100.00;97834.94;4237669;27;20075;-72
2022/09/17 05:03:35;;;;;;;1.95;1.10;;;;;;;8.48;100.00;97834.94;4238012;27;20127;-72
2022/09/17 05:05:36;;;;;;;1.92;1.23;;;;;;;8.49;100.00;97834.56;4238185;27;20039;-72
2022/09/17 05:07:40;;;;;;;3.38;1.30;;;;;;;8.45;100.00;97836.50;4235092;27;20122;-72
2022/09/17 05:09:40;;;;;;;4.70;1.42;;;;;;;8.46;100.00;97837.28;4236287;27;20568;-72
2022/09/17 05:11:41;;;;;;;3.58;1.20;;;;;;;8.42;100.00;97834.50;4236200;27;20075;-72
2022/09/17 05:13:41;;;;;;;1.60;1.20;;;;;;;8.38;100.00;97833.69;4238517;27;20058;-72
2022/09/17 05:15:41;;;;;;;2.40;1.70;;;;;;;8.37;100.00;97837.59;4239987;27;20043;-72
2022/09/17 05:17:42;;;;;;;2.55;1.30;;;;;;;8.42;100.00;97843.53;4238457;27;20039;-72
2022/09/17 05:19:42;;;;;;;2.53;1.48;;;;;;;8.42;100.00;97840.78;4237563;27;20649;-72
2022/09/17 05:21:42;;;;;;;3.47;1.80;;;;;;;8.43;100.00;97838.81;4238447;27;20039;-73
2022/09/17 05:23:43;;;;;;;1.92;1.42;;;;;;;8.46;100.00;97840.84;4237993;27;20067;-72
2022/09/17 05:25:43;;;;;;;3.50;1.40;;;;;;;8.54;100.00;97842.50;4238089;27;20051;-72
2022/09/17 05:27:44;;;;;;;2.95;1.13;;;;;;;8.52;100.00;97849.53;4238008;27;20071;-72
2022/09/17 05:29:44;;;;;;;1.80;1.20;;;;;;;8.55;100.00;97851.56;4237541;27;20126;-73
2022/09/17 05:31:45;;;;;;;2.45;1.02;;;;;;;8.66;100.00;97855.97;4237169;27;20374;-72
2022/09/17 05:33:45;;;;;;;3.05;1.02;;;;;;;8.69;100.00;97855.25;4237694;27;20051;-72
2022/09/17 05:35:45;;;;;;;2.03;1.00;;;;;;;8.68;100.00;97853.63;4237686;27;20478;-72
2022/09/17 05:37:46;;;;;;;3.42;1.13;;;;;;;8.72;100.00;97862.75;4237779;27;20088;-72
2022/09/17 05:39:46;;;;;;;5.43;2.10;;;;;;;8.78;100.00;97863.19;4236817;27;20141;-73
2022/09/17 05:41:47;;;;;;;3.10;1.38;;;;;;;8.78;100.00;97865.16;4238005;27;20443;-73
2022/09/17 05:43:48;;;;;;;1.15;1.00;;;;;;;8.83;100.00;97862.84;4237815;27;20754;-72
2022/09/17 05:45:48;;;;;;;1.55;0.90;;;;;;;8.79;100.00;97877.78;4237079;27;20051;-73
2022/09/17 05:47:54;;;;;;;2.05;1.15;;;;;;;8.79;100.00;97873.06;4237607;27;20047;-73
2022/09/17 05:49:54;;;;;;;2.08;0.85;;;;;;;8.81;100.00;97872.66;4236824;27;20035;-73
2022/09/17 05:51:54;;;;;;;2.25;0.90;;;;;;;8.73;100.00;97875.34;4237465;27;20118;-73
2022/09/17 05:53:55;;;;;;;1.75;0.80;;;;;;;8.72;100.00;97876.53;4237370;27;20491;-73
2022/09/17 05:55:56;;;;;;;1.60;1.17;;;;;;;8.77;100.00;97883.69;4237237;27;20471;-73
2022/09/17 05:57:57;;;;;;;3.83;1.27;;;;;;;8.72;100.00;97886.78;4237894;27;20043;-73
2022/09/17 05:59:57;;;;;;;2.45;0.90;;;;;;;8.78;100.00;97878.97;4236338;27;20038;-73
2022/09/17 06:01:57;;;;;;;2.78;1.00;;;;;;;8.85;100.00;97888.06;4147811;27;20063;-73
2022/09/17 06:03:58;;;;;;;1.38;0.90;;;;;;;8.86;100.00;97886.91;4223403;27;20031;-73
2022/09/17 06:05:59;;;;;;;2.75;1.10;;;;;;;8.87;100.00;97882.19;4236987;27;20451;-73
2022/09/17 06:07:59;;;;;;;4.03;1.08;;;;;;;8.94;100.00;97887.78;4238005;27;20035;-73
2022/09/17 06:10:00;;;;;;;3.83;1.13;;;;;;;8.90;100.00;97875.91;4236240;27;20081;-73
2022/09/17 06:12:00;;;;;;;3.53;1.08;;;;;;;8.90;100.00;97876.69;4236966;27;20047;-72
2022/09/17 06:14:00;;;;;;;1.75;1.10;;;;;;;8.94;100.00;97894.06;4236825;27;20047;-73
2022/09/17 06:16:02;;;;;;;1.75;0.80;;;;;;;8.90;100.00;97889.69;4236354;27;20126;-73
2022/09/17 06:18:03;;;;;;;2.63;1.67;;;;;;;8.87;100.00;97887.69;4237356;27;20039;-73
2022/09/17 06:20:05;;;;;;;2.08;1.20;;;;;;;8.99;100.00;97887.41;4236666;27;20362;-73
2022/09/17 06:22:05;;;;;;;2.35;0.80;;;;;;;9.01;100.00;97887.81;4236848;27;20023;-72
2022/09/17 06:24:05;;;;;;;2.05;1.20;;;;;;;9.02;100.00;97886.66;4236530;27;20027;-73
2022/09/17 06:26:06;;;;;;;2.50;0.90;;;;;;;9.03;100.00;97902.03;4237249;27;20370;-73
2022/09/17 06:28:06;;;;;;;2.22;1.10;;;;;;;9.08;100.00;97895.34;4236525;27;20605;-73
2022/09/17 06:30:07;;;;;;;0.93;0.80;;;;;;;9.12;100.00;97901.72;4233882;27;20023;-73
2022/09/17 06:32:11;;;;;;;3.70;1.20;;;;;;;9.15;100.00;97907.25;4238287;27;20062;-73
2022/09/17 06:34:12;;;;;;;3.22;1.38;;;;;;;9.19;100.00;97904.53;4237168;27;20104;-73
2022/09/17 06:36:12;;;;;;;1.48;1.20;;;;;;;9.23;100.00;97900.59;4237341;27;20031;-73
2022/09/17 06:38:13;;;;;;;3.22;1.75;;;;;;;9.29;100.00;97912.09;4237275;27;20019;-73
2022/09/17 06:40:14;;;;;;;2.20;1.25;;;;;;;9.32;100.00;97905.00;4237027;27;20035;-72
2022/09/17 06:42:14;;;;;;;7.32;1.70;;;;;;;9.30;100.00;97919.19;4236160;27;20104;-72
2022/09/17 06:44:15;;;;;;;2.92;1.20;;;;;;;9.27;100.00;97911.69;4237176;27;20274;-73
2022/09/17 06:46:15;;;;;;;3.22;1.35;;;;;;;9.25;100.00;97914.00;4236841;27;20046;-73
2022/09/17 06:48:16;;;;;;;5.60;2.00;;;;;;;9.26;100.00;97908.09;4236819;27;20046;-73
2022/09/17 06:50:16;;;;;;;4.10;1.58;;;;;;;9.39;100.00;97916.09;4236543;27;20038;-73
2022/09/17 06:52:17;;;;;;;11.93;1.90;;;;;;;9.35;100.00;97913.31;4236549;27;20027;-72
2022/09/17 06:54:17;;;;;;;3.53;1.38;;;;;;;9.40;100.00;97924.00;4237426;27;20034;-73
2022/09/17 06:56:17;;;;;;;5.00;1.63;;;;;;;9.48;99.26;97931.16;4236725;27;20035;-73
2022/09/17 06:58:18;;;;;;;3.70;2.10;;;;;;;9.48;98.13;97922.06;4215156;28;20040;-73
2022/09/17 07:00:18;;;;;;;5.85;3.03;;;;;;;9.46;98.20;97922.47;4238432;27;20077;-73
2022/09/17 07:02:18;;;;;;;4.32;1.88;;;;;;;9.62;97.65;97911.13;4236908;27;20023;-73
2022/09/17 07:04:19;;;;;;;6.78;2.20;;;;;;;9.66;95.54;97919.44;4235363;27;20419;-73
2022/09/17 07:06:20;;;;;;;6.20;1.77;;;;;;;9.76;96.33;97916.75;4236989;27;20035;-72
2022/09/17 07:08:20;;;;;;;12.00;1.90;;;;;;;9.77;94.27;97909.25;4236692;27;20292;-73
2022/09/17 07:10:25;;;;;;;6.40;2.22;;;;;;;9.92;92.57;97907.31;4236622;27;20054;-72
2022/09/17 07:12:26;;;;;;;7.10;2.63;;;;;;;9.99;92.24;97918.41;4236604;27;20368;-72
2022/09/17 07:14:26;;;;;;;5.70;2.13;;;;;;;10.01;91.75;97919.63;4235956;27;20073;-72
2022/09/17 07:16:26;;;;;;;6.85;2.85;;;;;;;10.09;91.79;97924.03;4237245;27;20035;-72
2022/09/17 07:18:27;;;;;;;9.68;2.00;;;;;;;10.02;89.99;97914.91;4236843;27;20886;-73
2022/09/17 07:20:28;;;;;;;7.10;2.30;;;;;;;9.90;91.35;97904.97;4234910;27;20039;-73
2022/09/17 07:22:28;;;;;;;11.30;2.65;;;;;;;9.86;91.91;97923.50;4238480;27;20069;-72
2022/09/17 07:24:28;;;;;;;10.68;4.63;;;;;;;9.87;90.43;97916.00;4236875;27;20533;-72
2022/09/17 07:26:29;;;;;;;7.57;2.78;;;;;;;9.81;90.54;97921.88;4235896;27;20097;-73
2022/09/17 07:28:30;;;;;;;6.32;2.13;;;;;;;9.81;90.87;97930.19;4236483;27;20051;-72
2022/09/17 07:30:30;;;;;;;5.63;2.45;;;;;;;9.84;90.30;97921.09;4235732;27;20530;-72
2022/09/17 07:32:30;;;;;;;7.40;2.60;;;;;;;9.89;90.00;97925.47;4236485;27;20069;-72
2022/09/17 07:34:31;;;;;;;10.10;2.80;;;;;;;9.83;88.21;97927.81;4236458;27;20051;-72
2022/09/17 07:36:31;;;;;;;10.30;2.10;;;;;;;9.92;89.00;97921.94;4235826;27;20066;-72
2022/09/17 07:38:33;;;;;;;6.82;2.03;;;;;;;10.02;88.60;97926.75;4236060;27;20062;-73
2022/09/17 07:40:33;;;;;;;7.75;2.15;;;;;;;10.07;88.25;97920.81;4236190;27;20099;-72
2022/09/17 07:42:34;;;;;;;6.03;2.25;;;;;;;10.08;87.97;97922.41;4236609;27;20683;-72
2022/09/17 07:44:34;;;;;;;7.88;2.22;;;;;;;10.13;88.71;97926.78;4236865;27;20043;-72
2022/09/17 07:46:35;;;;;;;7.75;2.30;;;;;;;10.11;88.06;97915.34;4236495;27;20127;-73
2022/09/17 07:48:35;;;;;;;5.03;1.73;;;;;;;10.11;88.01;97924.41;4235982;27;20053;-73
2022/09/17 07:50:36;;;;;;;7.45;1.98;;;;;;;10.02;88.12;97926.75;4236027;27;20461;-72
2022/09/17 07:52:37;;;;;;;9.77;2.00;;;;;;;10.04;88.75;97927.16;4236041;27;20065;-73
2022/09/17 07:54:37;;;;;;;16.35;3.10;;;;;;;10.22;88.69;97940.25;4236025;27;20047;-72
2022/09/17 07:56:37;;;;;;;8.95;1.83;;;;;;;10.21;88.78;97925.63;4235815;27;20043;-72
2022/09/17 07:58:38;;;;;;;9.43;2.55;;;;;;;10.33;89.54;97927.28;4234417;27;20055;-73
2022/09/17 08:00:39;;;;;;;7.88;2.53;;;;;;;10.43;87.95;97928.53;4236483;27;20089;-73
2022/09/17 08:02:39;;;;;;;7.38;2.25;;;;;;;10.38;85.48;97938.75;4236361;27;20035;-72
2022/09/17 08:04:42;;;;;;;9.45;2.90;;;;;;;10.43;86.48;97936.81;4235584;27;20039;-73
2022/09/17 08:06:47;;;;;;;10.05;2.58;;;;;;;10.49;84.59;97938.78;4236258;27;20414;-72
2022/09/17 08:08:48;;;;;;;8.15;2.53;;;;;;;10.43;84.83;97939.59;4235421;27;20123;-72
2022/09/17 08:10:48;;;;;;;10.77;2.30;;;;;;;10.50;84.47;97937.59;4235825;27;20047;-72
2022/09/17 08:12:49;;;;;;;8.52;2.70;;;;;;;10.40;83.05;97941.13;4235727;27;20069;-72
2022/09/17 08:14:50;;;;;;;9.27;1.90;;;;;;;10.55;82.43;97931.72;4235554;27;20155;-72
2022/09/17 08:16:50;;;;;;;6.38;2.05;;;;;;;10.69;82.63;97933.72;4235725;27;20047;-72
2022/09/17 08:18:56;;;;;;;12.65;2.90;;;;;;;10.71;82.93;97927.78;4233723;27;20078;-73
2022/09/17 08:21:00;;;;;;;7.60;2.95;;;;;;;10.68;81.75;97935.69;4235401;27;20039;-72
2022/09/17 08:23:00;;;;;;;9.93;2.75;;;;;;;10.63;82.66;97930.53;4237235;27;20391;-72
2022/09/17 08:25:03;;;;;;;10.70;2.20;;;;;;;10.56;82.81;97949.09;4235202;27;20054;-72
2022/09/17 08:27:04;;;;;;;10.32;3.20;;;;;;;10.50;81.34;97945.13;4235444;27;20201;-72
2022/09/17 08:29:04;;;;;;;9.63;2.63;;;;;;;10.51;80.40;97947.50;4235415;27;20046;-72
2022/09/17 08:31:07;;;;;;;6.25;2.03;;;;;;;10.47;80.07;97945.91;4235529;27;20391;-72
2022/09/17 08:33:07;;;;;;;11.98;2.17;;;;;;;10.45;80.42;97960.13;4236022;27;20047;-72
2022/09/17 08:35:08;;;;;;;9.63;2.42;;;;;;;10.52;81.68;97965.69;4235244;27;20039;-72
2022/09/17 08:37:08;;;;;;;6.03;2.35;;;;;;;10.46;82.54;97967.25;4235849;27;20392;-72
2022/09/17 08:39:10;;;;;;;11.43;2.42;;;;;;;10.44;81.69;97975.13;4234859;27;20418;-72
2022/09/17 08:41:20;;;;;;;9.07;2.85;;;;;;;10.50;82.91;97959.72;4235334;28;20039;-72
2022/09/17 08:43:23;;;;;;;9.75;2.38;;;;;;;10.72;83.03;97963.38;4235273;27;20510;-73
2022/09/17 08:45:25;;;;;;;8.00;2.03;;;;;;;10.84;81.33;97965.78;4235240;27;20047;-72
2022/09/17 08:47:29;;;;;;;5.60;2.08;;;;;;;10.89;82.04;97965.38;4236056;27;20039;-72
2022/09/17 08:49:36;;;;;;;11.88;2.40;;;;;;;10.60;81.93;97977.56;4234504;27;20108;-72
2022/09/17 08:52:14;;;;;;;5.97;2.60;;;;;;;10.51;82.41;97983.47;4235386;28;20511;-72
2022/09/17 08:54:37;;;;;;;6.00;1.80;;;;;;;10.36;81.09;97984.59;4234044;27;20124;-72
2022/09/17 08:56:40;;;;;;;6.30;2.80;;;;;;;10.50;81.50;97976.31;4235276;27;20107;-72
2022/09/17 08:58:58;;;;;;;13.13;2.92;;;;;;;10.63;83.01;97971.25;4234055;27;20535;-72
2022/09/17 09:01:04;;;;;;;10.32;2.20;;;;;;;10.65;79.93;97977.19;4234529;27;20092;-72
2022/09/17 09:03:27;;;;;;;7.65;2.25;;;;;;;10.82;78.44;97984.72;4235081;27;20047;-71
2022/09/17 09:05:41;;;;;;;13.30;2.33;;;;;;;10.91;78.88;97973.28;4235285;27;20051;-72
2022/09/17 09:07:48;;;;;;;6.30;2.47;;;;;;;11.01;78.45;97986.38;4235382;27;20043;-72
2022/09/17 09:10:24;;;;;;;9.57;2.40;;;;;;;11.11;77.98;97982.81;4234800;27;20206;-72
2022/09/17 09:12:27;;;;;;;9.82;3.42;;;;;;;11.20;76.17;97980.47;4234234;27;20051;-72
2022/09/17 09:14:49;;;;;;;14.98;2.63;;;;;;;11.29;74.81;97979.28;4235050;28;20435;-72
2022/09/17 09:16:51;;;;;;;7.68;2.08;;;;;;;11.40;76.75;97969.78;4235290;27;20148;-72
2022/09/17 09:18:54;;;;;;;6.85;1.65;;;;;;;11.39;75.64;97995.91;4234891;27;20298;-72
2022/09/17 09:21:19;;;;;;;7.88;2.38;;;;;;;11.29;76.29;97984.81;4234018;27;20202;-72
2022/09/17 09:23:30;;;;;;;9.98;2.47;;;;;;;11.35;76.60;98000.66;4235087;27;20047;-72
2022/09/17 09:25:39;;;;;;;15.57;3.63;;;;;;;11.38;76.91;97990.75;4233904;28;20039;-72
2022/09/17 09:28:03;;;;;;;12.75;2.50;;;;;;;11.35;73.92;97986.81;4237127;27;20379;-72
2022/09/17 09:30:09;;;;;;;6.88;1.98;;;;;;;11.29;73.30;97980.06;4238055;27;20571;-72
2022/09/17 09:32:36;;;;;;;8.05;2.17;;;;;;;11.40;75.25;97975.31;4236885;27;20421;-72
2022/09/17 09:34:36;;;;;;;10.43;2.03;;;;;;;11.57;72.61;97970.16;4237367;27;20050;-72
2022/09/17 09:36:37;;;;;;;11.52;2.45;;;;;;;11.59;72.02;97973.34;4237793;27;20125;-72
2022/09/17 09:38:41;;;;;;;8.38;2.22;;;;;;;11.52;72.03;97982.47;4237225;27;20050;-72
2022/09/17 09:40:59;;;;;;;10.27;1.95;;;;;;;11.47;69.54;97983.63;4237795;27;20051;-72
2022/09/17 09:43:08;;;;;;;7.05;2.00;;;;;;;11.49;70.12;97994.31;4237797;27;20051;-72
2022/09/17 09:45:16;;;;;;;10.20;1.88;;;;;;;11.18;68.29;97973.75;4237037;27;20055;-72
2022/09/17 09:47:25;;;;;;;7.93;2.22;;;;;;;11.23;68.70;97993.50;4238400;27;20303;-72
2022/09/17 09:49:37;;;;;;;10.77;2.28;;;;;;;11.38;69.46;97991.53;4237148;27;20039;-72
2022/09/17 09:52:04;;;;;;;13.80;2.40;;;;;;;11.51;69.70;97980.88;4237500;27;20136;-72